createdAt,value
2022-08-24T00:02:01.275Z,20.37
2022-08-24T00:04:28.660Z,20.25
2022-08-24T00:06:59.346Z,20.24
2022-08-24T00:09:25.838Z,20.22
2022-08-24T00:11:52.232Z,20.12
2022-08-24T00:14:18.678Z,20.00
2022-08-24T00:16:45.203Z,19.95
2022-08-24T00:19:12.086Z,19.94
2022-08-24T00:21:38.493Z,19.93
2022-08-24T00:24:05.607Z,19.93
2022-08-24T00:26:32.013Z,19.95
2022-08-24T00:28:58.723Z,19.94
2022-08-24T00:31:26.014Z,19.89
2022-08-24T00:33:52.496Z,19.88
2022-08-24T00:36:21.510Z,19.25
2022-08-24T00:38:47.969Z,19.84
2022-08-24T00:41:15.418Z,19.79
2022-08-24T00:43:54.122Z,19.74
2022-08-24T00:46:25.951Z,19.70
2022-08-24T00:49:01.595Z,19.63
2022-08-24T00:51:33.194Z,19.62
2022-08-24T00:54:07.478Z,19.61
2022-08-24T00:56:42.135Z,19.60
2022-08-24T00:59:12.045Z,19.61
2022-08-24T01:01:39.327Z,19.50
2022-08-24T01:04:09.822Z,19.49
2022-08-24T01:06:36.589Z,19.49
2022-08-24T01:09:04.832Z,19.41
2022-08-24T01:11:35.040Z,19.39
2022-08-24T01:14:03.209Z,19.38
2022-08-24T01:16:49.340Z,19.37
2022-08-24T01:19:45.897Z,19.36
2022-08-24T01:22:49.314Z,19.30
2022-08-24T01:25:16.640Z,19.22
2022-08-24T01:27:44.116Z,19.17
2022-08-24T01:30:13.683Z,19.12
2022-08-24T01:32:41.619Z,19.09
2022-08-24T01:35:09.156Z,19.06
2022-08-24T01:37:36.159Z,19.01
2022-08-24T01:40:07.296Z,18.99
2022-08-24T01:42:34.891Z,18.94
2022-08-24T01:45:03.170Z,18.93
2022-08-24T01:47:29.701Z,18.89
2022-08-24T01:49:56.174Z,18.83
2022-08-24T01:52:25.555Z,18.85
2022-08-24T01:54:53.045Z,18.81
2022-08-24T01:57:20.374Z,18.81
2022-08-24T01:59:49.529Z,18.80
2022-08-24T02:02:27.220Z,18.80
2022-08-24T02:04:53.999Z,18.80
2022-08-24T02:07:20.422Z,18.75
2022-08-24T02:09:47.316Z,18.74
2022-08-24T02:12:14.886Z,18.67
2022-08-24T02:14:41.567Z,18.53
2022-08-24T02:17:08.764Z,18.58
2022-08-24T02:19:35.922Z,18.48
2022-08-24T02:22:05.979Z,18.51
2022-08-24T02:24:33.083Z,18.46
2022-08-24T02:26:59.485Z,18.42
2022-08-24T02:29:26.073Z,18.50
2022-08-24T02:31:52.484Z,18.54
2022-08-24T02:34:18.924Z,18.54
2022-08-24T02:36:45.698Z,18.54
2022-08-24T02:39:12.543Z,18.47
2022-08-24T02:41:38.904Z,18.41
2022-08-24T02:44:05.946Z,18.39
2022-08-24T02:46:32.480Z,18.36
2022-08-24T02:49:10.616Z,18.34
2022-08-24T02:51:43.943Z,18.44
2022-08-24T02:54:13.134Z,18.43
2022-08-24T02:56:39.658Z,18.41
2022-08-24T02:59:06.083Z,18.44
2022-08-24T03:01:32.696Z,18.45
2022-08-24T03:03:59.125Z,18.44
2022-08-24T03:06:25.574Z,18.45
2022-08-24T03:08:56.634Z,18.45
2022-08-24T03:11:28.018Z,18.45
2022-08-24T03:13:55.700Z,18.28
2022-08-24T03:16:22.194Z,18.43
2022-08-24T03:18:48.795Z,18.42
2022-08-24T03:21:16.179Z,18.42
2022-08-24T03:23:42.660Z,18.42
2022-08-24T03:26:09.065Z,18.46
2022-08-24T03:28:35.473Z,18.44
2022-08-24T03:31:03.312Z,18.44
2022-08-24T03:33:30.133Z,18.37
2022-08-24T03:35:56.777Z,18.35
2022-08-24T03:38:23.401Z,18.33
2022-08-24T03:40:49.985Z,18.24
2022-08-24T03:43:35.473Z,18.28
2022-08-24T03:46:03.020Z,18.33
2022-08-24T03:48:30.502Z,18.30
2022-08-24T03:50:57.362Z,18.38
2022-08-24T03:53:24.078Z,18.23
2022-08-24T03:55:51.077Z,18.25
2022-08-24T03:58:17.826Z,18.17
2022-08-24T04:00:44.677Z,18.12
2022-08-24T04:03:11.817Z,18.10
2022-08-24T04:05:39.640Z,18.02
2022-08-24T04:08:06.570Z,17.99
2022-08-24T04:10:33.550Z,17.93
2022-08-24T04:13:01.482Z,17.84
2022-08-24T04:15:29.919Z,17.91
2022-08-24T04:17:56.300Z,17.89
2022-08-24T04:20:23.990Z,17.80
2022-08-24T04:22:51.374Z,17.88
2022-08-24T04:25:24.695Z,17.85
2022-08-24T04:27:51.945Z,17.85
2022-08-24T04:30:18.553Z,17.81
2022-08-24T04:32:45.250Z,17.81
2022-08-24T04:35:11.719Z,17.75
2022-08-24T04:37:38.555Z,17.80
2022-08-24T04:40:07.280Z,17.77
2022-08-24T04:42:33.825Z,17.73
2022-08-24T04:45:00.277Z,17.67
2022-08-24T04:47:26.687Z,17.72
2022-08-24T04:49:53.085Z,17.69
2022-08-24T04:52:19.438Z,17.76
2022-08-24T04:54:46.644Z,17.74
2022-08-24T04:57:17.948Z,17.74
2022-08-24T04:59:44.683Z,17.66
2022-08-24T05:02:11.181Z,17.70
2022-08-24T05:04:37.636Z,17.71
2022-08-24T05:07:04.829Z,17.70
2022-08-24T05:09:31.696Z,17.70
2022-08-24T05:11:58.229Z,17.58
2022-08-24T05:14:28.583Z,17.74
2022-08-24T05:16:55.484Z,17.64
2022-08-24T05:19:23.217Z,17.70
2022-08-24T05:21:49.696Z,17.67
2022-08-24T05:24:16.229Z,17.75
2022-08-24T05:26:43.516Z,17.76
2022-08-24T05:29:10.633Z,17.78
2022-08-24T05:31:37.345Z,17.79
2022-08-24T05:34:05.162Z,17.80
2022-08-24T05:36:34.573Z,17.83
2022-08-24T05:39:03.992Z,17.87
2022-08-24T05:41:32.374Z,17.90
2022-08-24T05:43:59.161Z,17.82
2022-08-24T05:46:26.089Z,17.95
2022-08-24T05:48:53.364Z,17.98
2022-08-24T05:51:21.296Z,18.02
2022-08-24T05:53:48.012Z,18.12
2022-08-24T05:56:17.024Z,18.15
2022-08-24T05:58:44.262Z,18.22
2022-08-24T06:01:16.890Z,18.24
2022-08-24T06:03:43.537Z,18.35
2022-08-24T06:06:11.100Z,18.46
2022-08-24T06:08:41.660Z,18.45
2022-08-24T06:11:09.565Z,18.51
2022-08-24T06:13:36.266Z,18.66
2022-08-24T06:16:21.538Z,18.68
2022-08-24T06:18:49.720Z,18.71
2022-08-24T06:21:19.170Z,18.71
2022-08-24T06:23:47.911Z,18.87
2022-08-24T06:26:33.903Z,18.91
2022-08-24T06:29:00.636Z,19.00
2022-08-24T06:31:27.871Z,19.09
2022-08-24T06:33:55.682Z,19.14
2022-08-24T06:36:22.986Z,19.24
2022-08-24T06:39:02.292Z,19.33
2022-08-24T06:41:28.742Z,19.47
2022-08-24T06:43:57.762Z,19.49
2022-08-24T06:46:27.336Z,19.54
2022-08-24T06:48:56.277Z,19.58
2022-08-24T06:51:23.461Z,19.62
2022-08-24T06:53:50.668Z,19.68
2022-08-24T06:56:18.578Z,19.75
2022-08-24T06:58:45.509Z,19.94
2022-08-24T07:01:20.973Z,20.01
2022-08-24T07:03:47.508Z,20.16
2022-08-24T07:06:14.718Z,20.31
2022-08-24T07:08:42.969Z,20.40
2022-08-24T07:11:10.773Z,20.39
2022-08-24T07:13:37.209Z,20.46
2022-08-24T07:16:04.621Z,20.55
2022-08-24T07:18:31.033Z,20.62
2022-08-24T07:21:01.286Z,20.76
2022-08-24T07:23:41.274Z,20.82
2022-08-24T07:26:20.807Z,20.95
2022-08-24T07:29:05.792Z,21.06
2022-08-24T07:31:37.187Z,21.13
2022-08-24T07:34:06.342Z,21.23
2022-08-24T07:36:34.321Z,21.36
2022-08-24T07:39:00.882Z,21.49
2022-08-24T07:44:15.536Z,21.77
2022-08-24T07:46:42.510Z,21.90
2022-08-24T07:49:21.399Z,22.11
2022-08-24T07:51:57.270Z,22.14
2022-08-24T07:54:23.816Z,22.16
2022-08-24T07:56:50.246Z,22.25
2022-08-24T07:59:17.371Z,22.37
2022-08-24T08:01:44.023Z,22.43
2022-08-24T08:04:10.613Z,22.48
2022-08-24T08:06:37.457Z,22.56
2022-08-24T08:09:06.097Z,22.53
2022-08-24T08:11:32.709Z,22.74
2022-08-24T08:13:59.452Z,22.82
2022-08-24T08:16:26.230Z,22.96
2022-08-24T08:19:09.186Z,22.99
2022-08-24T08:22:03.254Z,23.15
2022-08-24T08:24:29.669Z,23.30
2022-08-24T08:26:57.695Z,23.48
2022-08-24T08:29:25.142Z,23.57
2022-08-24T08:31:54.442Z,23.71
2022-08-24T08:34:20.960Z,23.77
2022-08-24T08:36:48.024Z,23.79
2022-08-24T08:39:16.552Z,24.03
2022-08-24T08:42:06.228Z,24.13
2022-08-24T08:44:50.448Z,24.36
2022-08-24T08:47:23.348Z,24.61
2022-08-24T08:50:11.485Z,24.76
2022-08-24T08:52:57.305Z,24.92
2022-08-24T08:55:29.147Z,25.19
2022-08-24T08:58:31.265Z,25.36
2022-08-24T09:01:09.581Z,25.47
2022-08-24T09:04:13.618Z,25.78
2022-08-24T09:07:01.838Z,26.16
2022-08-24T09:10:08.337Z,26.43
2022-08-24T09:12:58.575Z,26.72
2022-08-24T09:15:57.458Z,27.00
2022-08-24T09:18:47.874Z,27.34
2022-08-24T09:21:42.689Z,27.64
2022-08-24T09:24:43.693Z,28.01
2022-08-24T09:28:00.493Z,28.31
2022-08-24T09:30:51.969Z,28.47
2022-08-24T09:33:26.693Z,28.73
2022-08-24T09:36:08.406Z,29.02
2022-08-24T09:38:53.574Z,29.29
2022-08-24T09:41:33.431Z,29.62
2022-08-24T09:44:12.200Z,30.04
2022-08-24T09:47:12.430Z,30.71
2022-08-24T09:50:11.312Z,31.40
2022-08-24T09:52:40.514Z,31.95
2022-08-24T09:55:42.786Z,32.34
2022-08-24T09:58:33.270Z,32.67
2022-08-24T10:01:13.392Z,33.08
2022-08-24T10:03:51.427Z,33.40
2022-08-24T10:06:29.369Z,33.84
2022-08-24T10:09:34.016Z,34.15
2022-08-24T10:12:30.585Z,34.60
2022-08-24T10:15:08.569Z,34.97
2022-08-24T10:17:53.645Z,35.31
2022-08-24T10:20:33.957Z,35.62
2022-08-24T10:23:32.533Z,35.43
2022-08-24T10:26:10.964Z,35.67
2022-08-24T10:29:11.143Z,35.78
2022-08-24T10:32:01.791Z,36.42
2022-08-24T10:34:49.156Z,36.80
2022-08-24T10:37:49.468Z,37.12
2022-08-24T10:40:39.660Z,37.43
2022-08-24T10:43:33.767Z,37.62
2022-08-24T10:46:34.721Z,37.89
2022-08-24T10:49:33.289Z,37.95
2022-08-24T10:52:18.564Z,38.09
2022-08-24T10:54:45.613Z,38.36
2022-08-24T10:57:28.359Z,38.60
2022-08-24T11:00:22.615Z,38.80
2022-08-24T11:02:49.959Z,38.37
2022-08-24T11:05:29.664Z,38.20
2022-08-24T11:08:07.036Z,38.36
2022-08-24T11:10:36.526Z,38.51
2022-08-24T11:13:25.609Z,38.61
2022-08-24T11:15:57.765Z,38.61
2022-08-24T11:18:25.080Z,38.21
2022-08-24T11:20:54.986Z,38.27
2022-08-24T11:23:24.835Z,38.35
2022-08-24T11:26:02.773Z,38.57
2022-08-24T11:28:44.177Z,38.66
2022-08-24T11:31:14.249Z,38.44
2022-08-24T11:33:49.910Z,38.62
2022-08-24T11:36:21.104Z,38.49
2022-08-24T11:38:49.494Z,38.14
2022-08-24T11:41:29.549Z,37.52
2022-08-24T11:44:11.616Z,37.55
2022-08-24T11:46:53.373Z,37.74
2022-08-24T11:49:30.203Z,37.88
2022-08-24T11:52:02.612Z,37.95
2022-08-24T11:54:56.248Z,38.03
2022-08-24T11:57:34.667Z,38.28
2022-08-24T12:00:13.879Z,37.84
2022-08-24T12:02:49.123Z,37.29
2022-08-24T12:05:37.226Z,37.00
2022-08-24T12:08:09.743Z,36.77
2022-08-24T12:10:49.292Z,36.57
2022-08-24T12:13:48.175Z,36.72
2022-08-24T12:16:26.753Z,36.82
2022-08-24T12:19:11.575Z,37.15
2022-08-24T12:21:40.791Z,37.54
2022-08-24T12:24:13.893Z,37.26
2022-08-24T12:27:02.584Z,37.07
2022-08-24T12:29:40.908Z,37.14
2022-08-24T12:32:14.429Z,37.27
2022-08-24T12:35:02.380Z,37.24
2022-08-24T12:37:34.794Z,37.23
2022-08-24T12:40:35.837Z,37.20
2022-08-24T12:43:31.164Z,37.37
2022-08-24T12:46:01.298Z,37.18
2022-08-24T12:48:33.650Z,37.03
2022-08-24T12:51:25.846Z,36.52
2022-08-24T12:54:29.575Z,36.36
2022-08-24T12:57:25.675Z,36.62
2022-08-24T13:00:03.832Z,36.78
2022-08-24T13:02:37.199Z,36.67
2022-08-24T13:05:15.857Z,36.70
2022-08-24T13:07:46.510Z,36.70
2022-08-24T13:10:35.240Z,36.58
2022-08-24T13:13:04.555Z,36.63
2022-08-24T13:15:32.109Z,36.69
2022-08-24T13:18:13.773Z,36.59
2022-08-24T13:20:43.153Z,36.51
2022-08-24T13:23:13.233Z,36.37
2022-08-24T13:25:51.412Z,36.24
2022-08-24T13:28:20.919Z,36.13
2022-08-24T13:30:59.765Z,35.89
2022-08-24T13:33:44.830Z,35.69
2022-08-24T13:36:29.529Z,35.63
2022-08-24T13:39:04.344Z,35.69
2022-08-24T13:41:46.478Z,35.80
2022-08-24T13:44:22.201Z,35.91
2022-08-24T13:47:26.073Z,35.84
2022-08-24T13:50:01.732Z,35.84
2022-08-24T13:52:30.904Z,35.41
2022-08-24T13:55:23.293Z,35.09
2022-08-24T13:58:12.734Z,34.55
2022-08-24T14:00:42.409Z,34.31
2022-08-24T14:03:26.976Z,33.63
2022-08-24T14:06:21.465Z,33.32
2022-08-24T14:09:02.616Z,33.31
2022-08-24T14:11:45.982Z,33.57
2022-08-24T14:14:36.737Z,33.88
2022-08-24T14:17:33.517Z,34.02
2022-08-24T14:20:23.705Z,34.26
2022-08-24T14:22:50.013Z,34.07
2022-08-24T14:25:21.383Z,33.69
2022-08-24T14:27:53.905Z,33.29
2022-08-24T14:30:20.362Z,33.21
2022-08-24T14:32:59.062Z,33.20
2022-08-24T14:35:38.048Z,33.19
2022-08-24T14:38:09.118Z,33.29
2022-08-24T14:40:55.134Z,33.58
2022-08-24T14:43:28.584Z,33.65
2022-08-24T14:46:16.564Z,33.88
2022-08-24T14:49:09.099Z,34.01
2022-08-24T14:51:44.353Z,34.01
2022-08-24T14:54:25.277Z,34.05
2022-08-24T14:57:36.663Z,34.03
2022-08-24T15:00:15.073Z,34.01
2022-08-24T15:02:53.329Z,34.03
2022-08-24T15:05:31.950Z,34.06
2022-08-24T15:08:02.205Z,34.06
2022-08-24T15:10:57.149Z,33.95
2022-08-24T15:13:44.474Z,33.94
2022-08-24T15:16:18.972Z,33.96
2022-08-24T15:18:48.078Z,33.95
2022-08-24T15:21:28.668Z,33.79
2022-08-24T15:24:15.483Z,33.72
2022-08-24T15:26:57.335Z,33.70
2022-08-24T15:29:27.229Z,33.68
2022-08-24T15:31:58.941Z,33.70
2022-08-24T15:34:48.629Z,33.52
2022-08-24T15:37:24.762Z,33.42
2022-08-24T15:39:51.220Z,33.41
2022-08-24T15:42:18.129Z,33.50
2022-08-24T15:44:48.870Z,33.52
2022-08-24T15:47:24.065Z,33.46
2022-08-24T15:49:55.161Z,33.53
2022-08-24T15:53:00.146Z,33.57
2022-08-24T15:55:41.020Z,33.56
2022-08-24T15:58:32.512Z,33.52
2022-08-24T16:01:39.401Z,33.39
2022-08-24T16:04:12.272Z,33.38
2022-08-24T16:06:40.631Z,33.38
2022-08-24T16:09:19.711Z,33.34
2022-08-24T16:12:02.132Z,33.26
2022-08-24T16:14:31.192Z,33.23
2022-08-24T16:16:58.754Z,33.20
2022-08-24T16:19:33.151Z,33.12
2022-08-24T16:22:03.260Z,33.00
2022-08-24T16:24:40.877Z,33.03
2022-08-24T16:27:14.060Z,33.03
2022-08-24T16:29:41.765Z,33.00
2022-08-24T16:32:21.567Z,32.93
2022-08-24T16:35:01.343Z,32.93
2022-08-24T16:37:27.706Z,32.83
2022-08-24T16:39:54.275Z,32.70
2022-08-24T16:42:27.151Z,32.73
2022-08-24T16:44:54.271Z,32.81
2022-08-24T16:47:21.746Z,32.79
2022-08-24T16:49:48.719Z,32.70
2022-08-24T16:52:15.405Z,32.79
2022-08-24T16:54:42.130Z,32.71
2022-08-24T16:57:13.814Z,32.72
2022-08-24T16:59:43.831Z,32.67
2022-08-24T17:02:11.842Z,32.57
2022-08-24T17:04:38.676Z,32.64
2022-08-24T17:07:07.733Z,32.66
2022-08-24T17:09:37.589Z,32.62
2022-08-24T17:12:04.584Z,32.54
2022-08-24T17:14:31.074Z,32.44
2022-08-24T17:17:01.094Z,32.32
2022-08-24T17:19:29.925Z,32.27
2022-08-24T17:21:57.695Z,32.13
2022-08-24T17:24:24.339Z,32.05
2022-08-24T17:26:52.132Z,31.96
2022-08-24T17:29:19.932Z,31.86
2022-08-24T17:31:49.695Z,31.72
2022-08-24T17:34:17.660Z,31.53
2022-08-24T17:36:44.952Z,31.40
2022-08-24T17:39:13.268Z,31.27
2022-08-24T17:41:39.664Z,31.16
2022-08-24T17:44:09.496Z,31.10
2022-08-24T17:46:37.126Z,31.02
2022-08-24T17:49:03.859Z,30.94
2022-08-24T17:51:30.297Z,30.84
2022-08-24T17:53:56.713Z,30.74
2022-08-24T17:56:23.789Z,30.62
2022-08-24T17:59:08.832Z,30.46
2022-08-24T18:01:35.269Z,30.40
2022-08-24T18:04:01.635Z,30.33
2022-08-24T18:06:28.765Z,30.14
2022-08-24T18:08:58.086Z,30.14
2022-08-24T18:11:26.278Z,29.98
2022-08-24T18:13:54.273Z,29.78
2022-08-24T18:16:22.993Z,29.57
2022-08-24T18:18:51.777Z,29.42
2022-08-24T18:21:20.056Z,29.26
2022-08-24T18:23:48.334Z,29.00
2022-08-24T18:26:28.127Z,28.81
2022-08-24T18:28:57.499Z,28.67
2022-08-24T18:31:25.768Z,28.55
2022-08-24T18:33:52.358Z,28.51
2022-08-24T18:36:18.752Z,28.40
2022-08-24T18:38:45.154Z,28.33
2022-08-24T18:41:11.709Z,28.20
2022-08-24T18:43:38.412Z,28.09
2022-08-24T18:46:06.108Z,27.99
2022-08-24T18:48:32.650Z,27.97
2022-08-24T18:50:59.335Z,27.86
2022-08-24T18:53:27.552Z,27.69
2022-08-24T18:55:54.006Z,27.45
2022-08-24T18:58:20.705Z,27.42
2022-08-24T19:00:47.823Z,27.30
2022-08-24T19:03:19.267Z,27.20
2022-08-24T19:05:46.340Z,27.17
2022-08-24T19:08:12.989Z,27.14
2022-08-24T19:10:39.524Z,27.03
2022-08-24T19:13:15.227Z,26.96
2022-08-24T19:15:42.724Z,26.89
2022-08-24T19:18:11.003Z,26.88
2022-08-24T19:20:44.643Z,26.86
2022-08-24T19:23:17.564Z,26.81
2022-08-24T19:25:45.296Z,26.86
2022-08-24T19:28:12.158Z,26.83
2022-08-24T19:30:39.349Z,26.70
2022-08-24T19:33:09.370Z,26.66
2022-08-24T19:35:40.038Z,26.75
2022-08-24T19:38:06.422Z,26.67
2022-08-24T19:40:33.442Z,26.57
2022-08-24T19:43:02.103Z,26.56
2022-08-24T19:45:47.210Z,26.55
2022-08-24T19:48:13.588Z,26.48
2022-08-24T19:50:40.386Z,26.45
2022-08-24T19:53:07.148Z,26.42
2022-08-24T19:55:33.647Z,26.37
2022-08-24T19:58:29.348Z,26.43
2022-08-24T20:01:03.099Z,26.37
2022-08-24T20:03:29.740Z,26.31
2022-08-24T20:05:57.088Z,26.27
2022-08-24T20:08:23.453Z,26.25
2022-08-24T20:10:49.887Z,26.24
2022-08-24T20:13:16.379Z,26.23
2022-08-24T20:15:43.567Z,26.13
2022-08-24T20:18:10.492Z,25.83
2022-08-24T20:20:36.913Z,25.77
2022-08-24T20:23:06.144Z,25.60
2022-08-24T20:25:37.377Z,25.77
2022-08-24T20:28:27.763Z,25.76
2022-08-24T20:30:51.711Z,25.73
2022-08-24T20:33:21.026Z,25.64
2022-08-24T20:35:47.552Z,25.65
2022-08-24T20:38:17.115Z,25.63
2022-08-24T20:40:44.053Z,25.55
2022-08-24T20:43:12.834Z,25.62
2022-08-24T20:45:40.915Z,25.59
2022-08-24T20:48:09.928Z,25.51
2022-08-24T20:50:36.612Z,25.51
2022-08-24T20:53:03.622Z,25.49
2022-08-24T20:55:30.160Z,25.43
2022-08-24T20:58:03.266Z,25.38
2022-08-24T21:00:30.235Z,25.05
2022-08-24T21:02:57.969Z,25.32
2022-08-24T21:05:24.423Z,25.25
2022-08-24T21:07:51.773Z,25.18
2022-08-24T21:10:21.334Z,25.12
2022-08-24T21:12:52.041Z,25.10
2022-08-24T21:15:18.700Z,25.08
2022-08-24T21:17:45.457Z,24.92
2022-08-24T21:20:13.573Z,25.02
2022-08-24T21:22:40.273Z,24.86
2022-08-24T21:25:09.331Z,24.76
2022-08-24T21:27:38.393Z,24.69
2022-08-24T21:30:10.556Z,24.71
2022-08-24T21:32:55.725Z,24.72
2022-08-24T21:35:22.998Z,24.71
2022-08-24T21:37:50.194Z,24.64
2022-08-24T21:40:16.748Z,24.59
2022-08-24T21:42:43.141Z,24.59
2022-08-24T21:45:09.981Z,24.60
2022-08-24T21:47:36.442Z,24.60
2022-08-24T21:50:04.041Z,24.51
2022-08-24T21:52:30.386Z,24.44
2022-08-24T21:54:56.712Z,24.41
2022-08-24T21:57:23.363Z,24.41
2022-08-24T21:59:49.918Z,24.35
2022-08-24T22:02:16.842Z,24.30
2022-08-24T22:04:43.550Z,24.24
2022-08-24T22:07:10.371Z,24.23
2022-08-24T22:09:36.750Z,24.06
2022-08-24T22:12:06.585Z,24.12
2022-08-24T22:14:33.745Z,24.13
2022-08-24T22:17:00.485Z,24.10
2022-08-24T22:19:26.828Z,24.08
2022-08-24T22:21:53.268Z,24.02
2022-08-24T22:24:19.681Z,24.01
2022-08-24T22:26:46.321Z,24.05
2022-08-24T22:29:12.882Z,23.74
2022-08-24T22:31:41.481Z,24.09
2022-08-24T22:34:11.532Z,24.00
2022-08-24T22:36:42.636Z,24.00
2022-08-24T22:39:11.674Z,23.98
2022-08-24T22:41:39.112Z,23.90
2022-08-24T22:44:21.814Z,23.84
2022-08-24T22:46:52.059Z,23.87
2022-08-24T22:49:21.177Z,23.87
2022-08-24T22:51:47.931Z,23.90
2022-08-24T22:54:14.573Z,23.91
2022-08-24T22:56:47.301Z,23.85
2022-08-24T22:59:17.638Z,23.83
2022-08-24T23:01:46.257Z,23.77
2022-08-24T23:04:16.845Z,23.70
2022-08-24T23:06:43.317Z,23.56
2022-08-24T23:09:10.202Z,23.55
2022-08-24T23:11:37.172Z,23.53
2022-08-24T23:14:06.267Z,23.51
2022-08-24T23:16:34.873Z,23.43
2022-08-24T23:19:19.877Z,23.40
2022-08-24T23:21:46.430Z,23.36
2022-08-24T23:24:13.358Z,23.42
2022-08-24T23:26:40.928Z,23.40
2022-08-24T23:29:10.232Z,23.47
2022-08-24T23:31:36.985Z,23.45
2022-08-24T23:34:05.023Z,23.31
2022-08-24T23:36:31.411Z,23.37
2022-08-24T23:38:58.933Z,23.33
2022-08-24T23:41:32.077Z,23.30
2022-08-24T23:44:04.140Z,23.30
2022-08-24T23:46:31.055Z,23.29
2022-08-24T23:49:00.532Z,23.23
2022-08-24T23:51:30.041Z,23.18
2022-08-24T23:53:57.021Z,23.23
2022-08-24T23:56:31.632Z,23.22
2022-08-24T23:59:06.392Z,23.17
